sensor_id;sensor_type;location;lat;lon;timestamp;temperature;humidity
41533;DHT22;27262;-35.248;149.138;2023-04-01T00:01:45;19.30;69.50
41533;DHT22;27262;-35.248;149.138;2023-04-01T00:04:15;19.30;69.50
41533;DHT22;27262;-35.248;149.138;2023-04-01T00:06:47;19.30;69.50
41533;DHT22;27262;-35.248;149.138;2023-04-01T00:09:17;19.30;69.40
41533;DHT22;27262;-35.248;149.138;2023-04-01T00:11:47;19.30;69.50
41533;DHT22;27262;-35.248;149.138;2023-04-01T00:14:18;19.30;69.40
41533;DHT22;27262;-35.248;149.138;2023-04-01T00:16:48;19.30;69.40
41533;DHT22;27262;-35.248;149.138;2023-04-01T00:19:18;19.30;69.40
41533;DHT22;27262;-35.248;149.138;2023-04-01T00:21:49;19.30;69.40
41533;DHT22;27262;-35.248;149.138;2023-04-01T00:24:19;19.30;69.40
41533;DHT22;27262;-35.248;149.138;2023-04-01T00:26:50;19.30;69.40
41533;DHT22;27262;-35.248;149.138;2023-04-01T00:29:20;19.30;69.40
41533;DHT22;27262;-35.248;149.138;2023-04-01T00:31:50;19.30;69.40
41533;DHT22;27262;-35.248;149.138;2023-04-01T00:34:21;19.30;69.40
41533;DHT22;27262;-35.248;149.138;2023-04-01T00:36:51;19.30;69.40
41533;DHT22;27262;-35.248;149.138;2023-04-01T00:39:22;19.30;69.40
41533;DHT22;27262;-35.248;149.138;2023-04-01T00:41:52;19.30;69.40
41533;DHT22;27262;-35.248;149.138;2023-04-01T00:44:27;19.30;69.40
41533;DHT22;27262;-35.248;149.138;2023-04-01T00:46:59;19.30;69.30
41533;DHT22;27262;-35.248;149.138;2023-04-01T00:49:35;19.30;69.40
41533;DHT22;27262;-35.248;149.138;2023-04-01T00:52:08;19.30;69.40
41533;DHT22;27262;-35.248;149.138;2023-04-01T00:54:41;19.30;69.40
41533;DHT22;27262;-35.248;149.138;2023-04-01T00:57:23;19.30;69.40
41533;DHT22;27262;-35.248;149.138;2023-04-01T00:59:55;19.30;69.30
41533;DHT22;27262;-35.248;149.138;2023-04-01T01:02:26;19.30;69.40
41533;DHT22;27262;-35.248;149.138;2023-04-01T01:04:56;19.30;69.40
41533;DHT22;27262;-35.248;149.138;2023-04-01T01:07:52;19.30;69.30
41533;DHT22;27262;-35.248;149.138;2023-04-01T01:10:36;19.30;69.20
41533;DHT22;27262;-35.248;149.138;2023-04-01T01:13:41;19.30;69.30
41533;DHT22;27262;-35.248;149.138;2023-04-01T01:16:29;19.30;69.30
41533;DHT22;27262;-35.248;149.138;2023-04-01T01:27:25;19.30;69.30
41533;DHT22;27262;-35.248;149.138;2023-04-01T01:38:11;19.30;69.40
41533;DHT22;27262;-35.248;149.138;2023-04-01T01:40:55;19.30;69.30
41533;DHT22;27262;-35.248;149.138;2023-04-01T01:43:33;19.30;69.30
41533;DHT22;27262;-35.248;149.138;2023-04-01T01:46:19;19.40;69.30
41533;DHT22;27262;-35.248;149.138;2023-04-01T01:48:51;19.40;69.20
41533;DHT22;27262;-35.248;149.138;2023-04-01T01:51:23;19.40;69.30
41533;DHT22;27262;-35.248;149.138;2023-04-01T01:53:54;19.40;69.50
41533;DHT22;27262;-35.248;149.138;2023-04-01T01:56:26;19.40;69.50
41533;DHT22;27262;-35.248;149.138;2023-04-01T01:59:04;19.40;69.50
41533;DHT22;27262;-35.248;149.138;2023-04-01T02:01:41;19.40;69.40
41533;DHT22;27262;-35.248;149.138;2023-04-01T02:04:14;19.40;69.40
41533;DHT22;27262;-35.248;149.138;2023-04-01T02:07:04;19.40;69.40
41533;DHT22;27262;-35.248;149.138;2023-04-01T02:09:35;19.40;69.30
41533;DHT22;27262;-35.248;149.138;2023-04-01T02:12:11;19.40;69.40
41533;DHT22;27262;-35.248;149.138;2023-04-01T02:14:55;19.40;69.30
41533;DHT22;27262;-35.248;149.138;2023-04-01T02:17:29;19.40;69.20
41533;DHT22;27262;-35.248;149.138;2023-04-01T02:20:03;19.40;69.30
41533;DHT22;27262;-35.248;149.138;2023-04-01T02:22:38;19.40;69.30
41533;DHT22;27262;-35.248;149.138;2023-04-01T02:25:37;19.40;69.30
41533;DHT22;27262;-35.248;149.138;2023-04-01T02:28:10;19.40;69.00
41533;DHT22;27262;-35.248;149.138;2023-04-01T02:30:41;19.40;69.30
41533;DHT22;27262;-35.248;149.138;2023-04-01T02:33:13;19.40;69.30
41533;DHT22;27262;-35.248;149.138;2023-04-01T02:35:44;19.40;69.30
41533;DHT22;27262;-35.248;149.138;2023-04-01T02:38:15;19.50;70.00
41533;DHT22;27262;-35.248;149.138;2023-04-01T02:41:03;19.50;69.40
41533;DHT22;27262;-35.248;149.138;2023-04-01T02:43:34;19.50;69.70
41533;DHT22;27262;-35.248;149.138;2023-04-01T02:46:05;19.50;69.70
41533;DHT22;27262;-35.248;149.138;2023-04-01T02:48:35;19.50;69.40
41533;DHT22;27262;-35.248;149.138;2023-04-01T02:51:06;19.50;69.50
41533;DHT22;27262;-35.248;149.138;2023-04-01T02:53:36;19.50;69.40
41533;DHT22;27262;-35.248;149.138;2023-04-01T02:56:06;19.50;69.40
41533;DHT22;27262;-35.248;149.138;2023-04-01T02:58:37;19.50;69.40
41533;DHT22;27262;-35.248;149.138;2023-04-01T03:01:07;19.60;69.60
41533;DHT22;27262;-35.248;149.138;2023-04-01T03:03:37;19.60;69.60
41533;DHT22;27262;-35.248;149.138;2023-04-01T03:06:13;19.60;69.60
41533;DHT22;27262;-35.248;149.138;2023-04-01T03:08:44;19.60;69.70
41533;DHT22;27262;-35.248;149.138;2023-04-01T03:11:33;19.60;69.70
41533;DHT22;27262;-35.248;149.138;2023-04-01T03:14:22;19.60;69.70
41533;DHT22;27262;-35.248;149.138;2023-04-01T03:16:52;19.60;69.80
41533;DHT22;27262;-35.248;149.138;2023-04-01T03:19:23;19.70;69.80
41533;DHT22;27262;-35.248;149.138;2023-04-01T03:21:53;19.70;69.70
41533;DHT22;27262;-35.248;149.138;2023-04-01T03:24:23;19.70;69.70
41533;DHT22;27262;-35.248;149.138;2023-04-01T03:26:54;19.70;69.70
41533;DHT22;27262;-35.248;149.138;2023-04-01T03:29:25;19.70;69.70
41533;DHT22;27262;-35.248;149.138;2023-04-01T03:31:55;19.70;69.70
41533;DHT22;27262;-35.248;149.138;2023-04-01T03:34:27;19.80;69.70
41533;DHT22;27262;-35.248;149.138;2023-04-01T03:36:57;19.80;69.60
41533;DHT22;27262;-35.248;149.138;2023-04-01T03:39:27;19.80;69.60
41533;DHT22;27262;-35.248;149.138;2023-04-01T03:41:58;19.80;69.50
41533;DHT22;27262;-35.248;149.138;2023-04-01T03:44:32;19.70;69.00
41533;DHT22;27262;-35.248;149.138;2023-04-01T03:47:03;19.70;68.90
41533;DHT22;27262;-35.248;149.138;2023-04-01T03:49:33;19.80;68.80
41533;DHT22;27262;-35.248;149.138;2023-04-01T03:52:04;19.80;68.10
41533;DHT22;27262;-35.248;149.138;2023-04-01T03:54:34;19.80;67.70
41533;DHT22;27262;-35.248;149.138;2023-04-01T03:57:05;19.80;67.70
41533;DHT22;27262;-35.248;149.138;2023-04-01T03:59:35;19.80;67.30
41533;DHT22;27262;-35.248;149.138;2023-04-01T04:02:05;19.80;67.20
41533;DHT22;27262;-35.248;149.138;2023-04-01T04:04:36;19.80;67.30
41533;DHT22;27262;-35.248;149.138;2023-04-01T04:07:06;19.80;67.00
41533;DHT22;27262;-35.248;149.138;2023-04-01T04:09:40;19.80;66.40
41533;DHT22;27262;-35.248;149.138;2023-04-01T04:12:10;19.80;66.40
41533;DHT22;27262;-35.248;149.138;2023-04-01T04:14:41;19.80;66.40
41533;DHT22;27262;-35.248;149.138;2023-04-01T04:17:11;19.80;66.40
41533;DHT22;27262;-35.248;149.138;2023-04-01T04:19:45;19.90;66.50
41533;DHT22;27262;-35.248;149.138;2023-04-01T04:22:16;19.80;66.40
41533;DHT22;27262;-35.248;149.138;2023-04-01T04:24:46;19.90;66.40
41533;DHT22;27262;-35.248;149.138;2023-04-01T04:27:16;19.90;66.40
41533;DHT22;27262;-35.248;149.138;2023-04-01T04:29:46;19.90;66.30
41533;DHT22;27262;-35.248;149.138;2023-04-01T04:32:17;19.90;67.00
41533;DHT22;27262;-35.248;149.138;2023-04-01T04:34:47;19.90;66.10
41533;DHT22;27262;-35.248;149.138;2023-04-01T04:37:17;19.90;66.00
41533;DHT22;27262;-35.248;149.138;2023-04-01T04:39:47;19.90;66.00
41533;DHT22;27262;-35.248;149.138;2023-04-01T04:42:36;19.90;65.60
41533;DHT22;27262;-35.248;149.138;2023-04-01T04:45:13;19.90;65.60
41533;DHT22;27262;-35.248;149.138;2023-04-01T04:47:43;19.90;65.90
41533;DHT22;27262;-35.248;149.138;2023-04-01T04:50:13;19.90;65.90
41533;DHT22;27262;-35.248;149.138;2023-04-01T04:52:44;19.90;65.90
41533;DHT22;27262;-35.248;149.138;2023-04-01T04:55:14;20.00;66.00
41533;DHT22;27262;-35.248;149.138;2023-04-01T04:57:45;20.00;66.20
41533;DHT22;27262;-35.248;149.138;2023-04-01T05:00:15;20.00;66.10
41533;DHT22;27262;-35.248;149.138;2023-04-01T05:02:46;20.00;65.40
41533;DHT22;27262;-35.248;149.138;2023-04-01T05:05:16;20.00;65.60
41533;DHT22;27262;-35.248;149.138;2023-04-01T05:07:47;19.90;65.10
41533;DHT22;27262;-35.248;149.138;2023-04-01T05:10:17;20.00;64.40
41533;DHT22;27262;-35.248;149.138;2023-04-01T05:12:47;20.00;64.60
41533;DHT22;27262;-35.248;149.138;2023-04-01T05:15:18;20.00;64.80
41533;DHT22;27262;-35.248;149.138;2023-04-01T05:17:48;20.00;65.10
41533;DHT22;27262;-35.248;149.138;2023-04-01T05:20:18;20.00;65.30
41533;DHT22;27262;-35.248;149.138;2023-04-01T05:22:49;20.00;65.50
41533;DHT22;27262;-35.248;149.138;2023-04-01T05:25:19;20.10;65.70
41533;DHT22;27262;-35.248;149.138;2023-04-01T05:27:49;20.00;65.80
41533;DHT22;27262;-35.248;149.138;2023-04-01T05:30:20;20.00;65.90
41533;DHT22;27262;-35.248;149.138;2023-04-01T05:32:50;20.10;65.90
41533;DHT22;27262;-35.248;149.138;2023-04-01T05:35:21;20.10;66.00
41533;DHT22;27262;-35.248;149.138;2023-04-01T05:37:51;20.10;66.10
41533;DHT22;27262;-35.248;149.138;2023-04-01T05:40:21;20.10;66.10
41533;DHT22;27262;-35.248;149.138;2023-04-01T05:42:52;20.10;66.00
41533;DHT22;27262;-35.248;149.138;2023-04-01T05:45:22;20.10;66.10
41533;DHT22;27262;-35.248;149.138;2023-04-01T05:47:53;20.10;66.20
41533;DHT22;27262;-35.248;149.138;2023-04-01T05:50:23;20.10;66.20
41533;DHT22;27262;-35.248;149.138;2023-04-01T05:52:53;20.10;66.20
41533;DHT22;27262;-35.248;149.138;2023-04-01T05:55:24;20.10;66.30
41533;DHT22;27262;-35.248;149.138;2023-04-01T05:57:54;20.20;66.30
41533;DHT22;27262;-35.248;149.138;2023-04-01T06:00:24;20.20;66.40
41533;DHT22;27262;-35.248;149.138;2023-04-01T06:02:57;20.20;66.30
41533;DHT22;27262;-35.248;149.138;2023-04-01T06:05:30;20.20;66.40
41533;DHT22;27262;-35.248;149.138;2023-04-01T06:08:11;20.20;66.30
41533;DHT22;27262;-35.248;149.138;2023-04-01T06:17:41;20.20;66.10
41533;DHT22;27262;-35.248;149.138;2023-04-01T06:20:22;20.20;66.20
41533;DHT22;27262;-35.248;149.138;2023-04-01T06:37:39;20.30;66.60
41533;DHT22;27262;-35.248;149.138;2023-04-01T06:48:46;20.40;66.50
41533;DHT22;27262;-35.248;149.138;2023-04-01T06:54:14;20.40;66.60
41533;DHT22;27262;-35.248;149.138;2023-04-01T06:56:50;20.40;66.50
41533;DHT22;27262;-35.248;149.138;2023-04-01T06:59:30;20.40;66.60
41533;DHT22;27262;-35.248;149.138;2023-04-01T07:04:44;20.40;66.50
41533;DHT22;27262;-35.248;149.138;2023-04-01T07:13:06;20.50;66.30
41533;DHT22;27262;-35.248;149.138;2023-04-01T07:15:43;20.50;66.40
41533;DHT22;27262;-35.248;149.138;2023-04-01T07:24:15;20.50;66.30
41533;DHT22;27262;-35.248;149.138;2023-04-01T07:26:47;20.50;66.30
41533;DHT22;27262;-35.248;149.138;2023-04-01T07:29:19;20.50;66.40
41533;DHT22;27262;-35.248;149.138;2023-04-01T07:34:55;20.50;66.30
41533;DHT22;27262;-35.248;149.138;2023-04-01T07:37:58;20.50;66.00
41533;DHT22;27262;-35.248;149.138;2023-04-01T07:43:53;20.50;66.30
41533;DHT22;27262;-35.248;149.138;2023-04-01T08:00:13;20.50;66.70
41533;DHT22;27262;-35.248;149.138;2023-04-01T08:08:46;20.50;66.70
41533;DHT22;27262;-35.248;149.138;2023-04-01T08:16:56;20.50;66.60
41533;DHT22;27262;-35.248;149.138;2023-04-01T08:19:43;20.50;66.70
41533;DHT22;27262;-35.248;149.138;2023-04-01T08:22:45;20.50;66.70
41533;DHT22;27262;-35.248;149.138;2023-04-01T08:25:24;20.50;66.70
41533;DHT22;27262;-35.248;149.138;2023-04-01T08:38:36;20.50;66.70
41533;DHT22;27262;-35.248;149.138;2023-04-01T08:53:00;20.50;66.60
41533;DHT22;27262;-35.248;149.138;2023-04-01T08:55:38;20.50;66.80
41533;DHT22;27262;-35.248;149.138;2023-04-01T09:01:11;20.50;67.60
41533;DHT22;27262;-35.248;149.138;2023-04-01T09:10:32;20.50;67.40
41533;DHT22;27262;-35.248;149.138;2023-04-01T09:13:05;20.50;66.50
41533;DHT22;27262;-35.248;149.138;2023-04-01T09:30:52;20.50;66.70
41533;DHT22;27262;-35.248;149.138;2023-04-01T09:33:42;20.50;66.50
41533;DHT22;27262;-35.248;149.138;2023-04-01T09:40:16;20.50;66.60
41533;DHT22;27262;-35.248;149.138;2023-04-01T09:43:02;20.50;66.60
41533;DHT22;27262;-35.248;149.138;2023-04-01T10:00:51;20.50;66.70
41533;DHT22;27262;-35.248;149.138;2023-04-01T10:23:13;20.50;67.10
41533;DHT22;27262;-35.248;149.138;2023-04-01T10:31:35;20.50;67.10
41533;DHT22;27262;-35.248;149.138;2023-04-01T10:51:20;20.40;67.10
41533;DHT22;27262;-35.248;149.138;2023-04-01T11:19:42;20.30;67.40
41533;DHT22;27262;-35.248;149.138;2023-04-01T11:25:24;20.30;67.40
41533;DHT22;27262;-35.248;149.138;2023-04-01T11:43:35;20.20;67.40
41533;DHT22;27262;-35.248;149.138;2023-04-01T11:46:16;20.20;67.60
41533;DHT22;27262;-35.248;149.138;2023-04-01T11:52:20;20.20;67.30
41533;DHT22;27262;-35.248;149.138;2023-04-01T12:08:53;20.20;67.50
41533;DHT22;27262;-35.248;149.138;2023-04-01T12:14:24;20.10;67.50
41533;DHT22;27262;-35.248;149.138;2023-04-01T12:17:33;20.10;67.50
41533;DHT22;27262;-35.248;149.138;2023-04-01T12:22:57;20.10;67.50
41533;DHT22;27262;-35.248;149.138;2023-04-01T12:25:55;20.10;67.50
41533;DHT22;27262;-35.248;149.138;2023-04-01T12:43:23;20.10;67.60
41533;DHT22;27262;-35.248;149.138;2023-04-01T12:52:07;20.00;67.60
41533;DHT22;27262;-35.248;149.138;2023-04-01T13:06:41;20.00;67.50
41533;DHT22;27262;-35.248;149.138;2023-04-01T13:12:36;19.90;67.50
41533;DHT22;27262;-35.248;149.138;2023-04-01T13:15:26;19.90;67.50
41533;DHT22;27262;-35.248;149.138;2023-04-01T13:26:34;19.80;67.60
41533;DHT22;27262;-35.248;149.138;2023-04-01T13:29:22;19.80;67.50
41533;DHT22;27262;-35.248;149.138;2023-04-01T13:34:36;19.80;67.60
41533;DHT22;27262;-35.248;149.138;2023-04-01T13:42:31;19.80;67.60
41533;DHT22;27262;-35.248;149.138;2023-04-01T13:45:21;19.80;67.60
41533;DHT22;27262;-35.248;149.138;2023-04-01T13:48:11;19.80;67.50
41533;DHT22;27262;-35.248;149.138;2023-04-01T14:37:40;19.60;67.30
41533;DHT22;27262;-35.248;149.138;2023-04-01T14:41:02;19.60;67.30
41533;DHT22;27262;-35.248;149.138;2023-04-01T14:43:28;19.50;67.40
41533;DHT22;27262;-35.248;149.138;2023-04-01T14:49:24;19.50;67.20
41533;DHT22;27262;-35.248;149.138;2023-04-01T14:54:52;19.50;67.20
41533;DHT22;27262;-35.248;149.138;2023-04-01T14:57:31;19.50;67.30
41533;DHT22;27262;-35.248;149.138;2023-04-01T15:00:14;19.50;67.30
41533;DHT22;27262;-35.248;149.138;2023-04-01T15:14:08;19.40;67.20
41533;DHT22;27262;-35.248;149.138;2023-04-01T15:22:39;19.40;67.20
41533;DHT22;27262;-35.248;149.138;2023-04-01T15:36:56;19.30;67.30
41533;DHT22;27262;-35.248;149.138;2023-04-01T15:39:55;19.30;67.30
41533;DHT22;27262;-35.248;149.138;2023-04-01T15:42:40;19.30;67.20
41533;DHT22;27262;-35.248;149.138;2023-04-01T15:49:15;19.30;67.20
41533;DHT22;27262;-35.248;149.138;2023-04-01T16:00:53;19.20;67.30
41533;DHT22;27262;-35.248;149.138;2023-04-01T16:06:14;19.20;67.30
41533;DHT22;27262;-35.248;149.138;2023-04-01T16:11:46;19.20;67.30
41533;DHT22;27262;-35.248;149.138;2023-04-01T16:20:35;19.20;67.40
41533;DHT22;27262;-35.248;149.138;2023-04-01T16:22:57;19.20;67.30
41533;DHT22;27262;-35.248;149.138;2023-04-01T16:25:42;19.10;67.30
41533;DHT22;27262;-35.248;149.138;2023-04-01T16:28:32;19.10;67.40
41533;DHT22;27262;-35.248;149.138;2023-04-01T16:39:28;19.00;67.30
41533;DHT22;27262;-35.248;149.138;2023-04-01T16:50:25;19.00;67.40
41533;DHT22;27262;-35.248;149.138;2023-04-01T17:04:44;19.00;67.50
41533;DHT22;27262;-35.248;149.138;2023-04-01T17:07:35;19.00;67.40
41533;DHT22;27262;-35.248;149.138;2023-04-01T17:10:32;18.90;67.50
41533;DHT22;27262;-35.248;149.138;2023-04-01T17:13:35;18.90;67.40
41533;DHT22;27262;-35.248;149.138;2023-04-01T17:21:54;18.90;67.90
41533;DHT22;27262;-35.248;149.138;2023-04-01T17:35:32;18.80;67.50
41533;DHT22;27262;-35.248;149.138;2023-04-01T17:46:47;18.80;67.60
41533;DHT22;27262;-35.248;149.138;2023-04-01T17:49:30;18.80;67.70
41533;DHT22;27262;-35.248;149.138;2023-04-01T17:52:16;18.70;67.70
41533;DHT22;27262;-35.248;149.138;2023-04-01T17:58:03;18.70;68.40
41533;DHT22;27262;-35.248;149.138;2023-04-01T18:06:36;18.70;67.70
41533;DHT22;27262;-35.248;149.138;2023-04-01T18:15:40;18.70;67.70
41533;DHT22;27262;-35.248;149.138;2023-04-01T18:21:53;18.70;67.80
41533;DHT22;27262;-35.248;149.138;2023-04-01T18:24:42;18.70;67.70
41533;DHT22;27262;-35.248;149.138;2023-04-01T18:27:21;18.70;67.90
41533;DHT22;27262;-35.248;149.138;2023-04-01T18:38:35;18.60;67.60
41533;DHT22;27262;-35.248;149.138;2023-04-01T18:44:18;18.60;67.60
41533;DHT22;27262;-35.248;149.138;2023-04-01T18:49:50;18.60;67.60
41533;DHT22;27262;-35.248;149.138;2023-04-01T18:57:53;18.60;67.60
41533;DHT22;27262;-35.248;149.138;2023-04-01T19:00:32;18.60;67.50
41533;DHT22;27262;-35.248;149.138;2023-04-01T19:03:23;18.60;67.70
41533;DHT22;27262;-35.248;149.138;2023-04-01T19:05:58;18.60;67.60
41533;DHT22;27262;-35.248;149.138;2023-04-01T19:08:39;18.60;67.60
41533;DHT22;27262;-35.248;149.138;2023-04-01T19:11:33;18.60;67.50
41533;DHT22;27262;-35.248;149.138;2023-04-01T19:14:30;18.60;67.50
41533;DHT22;27262;-35.248;149.138;2023-04-01T19:25:58;18.50;67.50
41533;DHT22;27262;-35.248;149.138;2023-04-01T19:31:32;18.50;67.50
41533;DHT22;27262;-35.248;149.138;2023-04-01T19:40:15;18.50;67.40
41533;DHT22;27262;-35.248;149.138;2023-04-01T19:46:04;18.50;67.40
41533;DHT22;27262;-35.248;149.138;2023-04-01T19:51:17;18.50;68.20
41533;DHT22;27262;-35.248;149.138;2023-04-01T19:53:59;18.50;67.50
41533;DHT22;27262;-35.248;149.138;2023-04-01T19:56:48;18.40;67.50
41533;DHT22;27262;-35.248;149.138;2023-04-01T19:59:44;18.50;67.50
41533;DHT22;27262;-35.248;149.138;2023-04-01T20:08:18;18.40;67.20
41533;DHT22;27262;-35.248;149.138;2023-04-01T20:11:01;18.40;67.40
41533;DHT22;27262;-35.248;149.138;2023-04-01T20:14:13;18.30;67.30
41533;DHT22;27262;-35.248;149.138;2023-04-01T20:19:50;18.30;67.30
41533;DHT22;27262;-35.248;149.138;2023-04-01T20:25:22;18.30;67.20
41533;DHT22;27262;-35.248;149.138;2023-04-01T20:28:00;18.20;67.30
41533;DHT22;27262;-35.248;149.138;2023-04-01T20:36:15;18.20;67.30
41533;DHT22;27262;-35.248;149.138;2023-04-01T20:41:39;18.20;67.20
41533;DHT22;27262;-35.248;149.138;2023-04-01T20:48:21;18.10;67.10
41533;DHT22;27262;-35.248;149.138;2023-04-01T20:50:51;18.10;67.20
41533;DHT22;27262;-35.248;149.138;2023-04-01T21:07:49;18.10;67.60
41533;DHT22;27262;-35.248;149.138;2023-04-01T21:28:00;18.40;67.70
41533;DHT22;27262;-35.248;149.138;2023-04-01T21:42:12;18.40;68.20
41533;DHT22;27262;-35.248;149.138;2023-04-01T21:50:44;18.50;68.30
41533;DHT22;27262;-35.248;149.138;2023-04-01T22:13:26;18.50;68.80
41533;DHT22;27262;-35.248;149.138;2023-04-01T22:24:17;18.70;69.20
41533;DHT22;27262;-35.248;149.138;2023-04-01T22:27:12;18.60;68.60
41533;DHT22;27262;-35.248;149.138;2023-04-01T22:33:05;18.70;69.50
41533;DHT22;27262;-35.248;149.138;2023-04-01T22:50:20;18.80;69.50
41533;DHT22;27262;-35.248;149.138;2023-04-01T22:56:01;18.80;69.40
41533;DHT22;27262;-35.248;149.138;2023-04-01T22:58:38;18.70;69.50
41533;DHT22;27262;-35.248;149.138;2023-04-01T23:01:19;18.80;69.60
41533;DHT22;27262;-35.248;149.138;2023-04-01T23:03:52;18.80;69.50
41533;DHT22;27262;-35.248;149.138;2023-04-01T23:06:32;18.80;69.70
41533;DHT22;27262;-35.248;149.138;2023-04-01T23:11:53;18.80;69.60
41533;DHT22;27262;-35.248;149.138;2023-04-01T23:14:33;18.80;69.80
41533;DHT22;27262;-35.248;149.138;2023-04-01T23:34:04;18.90;69.10
41533;DHT22;27262;-35.248;149.138;2023-04-01T23:36:47;18.90;69.90
41533;DHT22;27262;-35.248;149.138;2023-04-01T23:39:41;18.90;69.60
41533;DHT22;27262;-35.248;149.138;2023-04-01T23:47:56;18.90;69.50
41533;DHT22;27262;-35.248;149.138;2023-04-01T23:50:46;19.00;69.80
41533;DHT22;27262;-35.248;149.138;2023-04-01T23:53:35;19.00;69.70
41533;DHT22;27262;-35.248;149.138;2023-04-01T23:56:06;19.00;69.70
41533;DHT22;27262;-35.248;149.138;2023-04-01T23:58:49;19.00;69.70
